sensor_id;sensor_type;location;lat;lon;timestamp;temperature;humidity
13754;DHT22;6948;51.216;6.778;2023-04-15T00:00:16;11.10;1.00
13754;DHT22;6948;51.216;6.778;2023-04-15T00:02:42;11.10;1.00
13754;DHT22;6948;51.216;6.778;2023-04-15T00:05:08;11.00;1.00
13754;DHT22;6948;51.216;6.778;2023-04-15T00:07:34;10.90;99.90
13754;DHT22;6948;51.216;6.778;2023-04-15T00:10:00;10.80;99.90
13754;DHT22;6948;51.216;6.778;2023-04-15T00:12:27;10.70;1.00
13754;DHT22;6948;51.216;6.778;2023-04-15T00:14:52;10.70;1.00
13754;DHT22;6948;51.216;6.778;2023-04-15T00:17:19;10.70;1.00
13754;DHT22;6948;51.216;6.778;2023-04-15T00:19:44;10.60;1.00
13754;DHT22;6948;51.216;6.778;2023-04-15T00:22:11;10.60;1.00
13754;DHT22;6948;51.216;6.778;2023-04-15T00:24:37;10.50;1.00
13754;DHT22;6948;51.216;6.778;2023-04-15T00:27:03;10.50;1.20
13754;DHT22;6948;51.216;6.778;2023-04-15T00:29:29;10.40;99.90
13754;DHT22;6948;51.216;6.778;2023-04-15T00:31:55;10.40;99.90
13754;DHT22;6948;51.216;6.778;2023-04-15T00:34:22;10.40;99.90
13754;DHT22;6948;51.216;6.778;2023-04-15T00:36:48;10.40;99.90
13754;DHT22;6948;51.216;6.778;2023-04-15T00:39:13;10.40;99.90
13754;DHT22;6948;51.216;6.778;2023-04-15T00:41:40;10.40;99.90
13754;DHT22;6948;51.216;6.778;2023-04-15T00:44:07;10.40;99.90
13754;DHT22;6948;51.216;6.778;2023-04-15T00:46:35;10.40;99.90
13754;DHT22;6948;51.216;6.778;2023-04-15T00:49:03;10.40;99.90
13754;DHT22;6948;51.216;6.778;2023-04-15T00:51:29;10.40;99.90
13754;DHT22;6948;51.216;6.778;2023-04-15T00:53:56;10.30;99.90
13754;DHT22;6948;51.216;6.778;2023-04-15T00:56:22;10.40;99.90
13754;DHT22;6948;51.216;6.778;2023-04-15T00:58:50;10.40;99.90
13754;DHT22;6948;51.216;6.778;2023-04-15T01:01:18;10.40;99.90
13754;DHT22;6948;51.216;6.778;2023-04-15T01:03:46;10.30;99.90
13754;DHT22;6948;51.216;6.778;2023-04-15T01:06:12;10.20;99.90
13754;DHT22;6948;51.216;6.778;2023-04-15T01:08:38;10.20;1.00
13754;DHT22;6948;51.216;6.778;2023-04-15T01:11:04;10.20;1.00
13754;DHT22;6948;51.216;6.778;2023-04-15T01:13:32;10.10;1.00
13754;DHT22;6948;51.216;6.778;2023-04-15T01:15:58;10.10;1.00
13754;DHT22;6948;51.216;6.778;2023-04-15T01:18:24;10.10;1.00
13754;DHT22;6948;51.216;6.778;2023-04-15T01:20:49;10.00;1.00
13754;DHT22;6948;51.216;6.778;2023-04-15T01:23:15;10.00;1.00
13754;DHT22;6948;51.216;6.778;2023-04-15T01:25:42;10.00;1.00
13754;DHT22;6948;51.216;6.778;2023-04-15T01:28:09;9.90;1.00
13754;DHT22;6948;51.216;6.778;2023-04-15T01:30:35;9.90;1.00
13754;DHT22;6948;51.216;6.778;2023-04-15T01:33:01;9.90;1.00
13754;DHT22;6948;51.216;6.778;2023-04-15T01:35:27;9.90;1.00
13754;DHT22;6948;51.216;6.778;2023-04-15T01:37:53;10.00;1.00
13754;DHT22;6948;51.216;6.778;2023-04-15T01:40:21;10.00;1.00
13754;DHT22;6948;51.216;6.778;2023-04-15T01:42:47;10.00;1.00
13754;DHT22;6948;51.216;6.778;2023-04-15T01:45:12;10.00;1.00
13754;DHT22;6948;51.216;6.778;2023-04-15T01:47:38;10.00;1.00
13754;DHT22;6948;51.216;6.778;2023-04-15T01:50:04;10.10;1.00
13754;DHT22;6948;51.216;6.778;2023-04-15T01:52:31;10.10;1.00
13754;DHT22;6948;51.216;6.778;2023-04-15T01:54:56;10.10;1.00
13754;DHT22;6948;51.216;6.778;2023-04-15T01:57:22;10.10;1.00
13754;DHT22;6948;51.216;6.778;2023-04-15T01:59:48;10.10;1.00
13754;DHT22;6948;51.216;6.778;2023-04-15T02:02:13;10.20;1.00
13754;DHT22;6948;51.216;6.778;2023-04-15T02:04:39;10.20;1.00
13754;DHT22;6948;51.216;6.778;2023-04-15T02:07:05;10.20;1.00
13754;DHT22;6948;51.216;6.778;2023-04-15T02:09:31;10.20;1.00
13754;DHT22;6948;51.216;6.778;2023-04-15T02:11:57;10.20;1.00
13754;DHT22;6948;51.216;6.778;2023-04-15T02:14:23;10.20;1.00
13754;DHT22;6948;51.216;6.778;2023-04-15T02:16:48;10.20;1.00
13754;DHT22;6948;51.216;6.778;2023-04-15T02:19:14;10.20;1.00
13754;DHT22;6948;51.216;6.778;2023-04-15T02:21:39;10.30;1.00
13754;DHT22;6948;51.216;6.778;2023-04-15T02:24:06;10.30;1.00
13754;DHT22;6948;51.216;6.778;2023-04-15T02:26:31;10.40;1.00
13754;DHT22;6948;51.216;6.778;2023-04-15T02:28:58;10.40;1.00
13754;DHT22;6948;51.216;6.778;2023-04-15T02:31:24;10.50;1.00
13754;DHT22;6948;51.216;6.778;2023-04-15T02:33:50;10.40;1.00
13754;DHT22;6948;51.216;6.778;2023-04-15T02:36:16;10.50;1.00
13754;DHT22;6948;51.216;6.778;2023-04-15T02:38:41;10.50;1.00
13754;DHT22;6948;51.216;6.778;2023-04-15T02:41:08;10.40;1.00
13754;DHT22;6948;51.216;6.778;2023-04-15T02:43:35;10.40;1.00
13754;DHT22;6948;51.216;6.778;2023-04-15T02:46:00;10.40;1.00
13754;DHT22;6948;51.216;6.778;2023-04-15T02:48:26;10.40;1.00
13754;DHT22;6948;51.216;6.778;2023-04-15T02:50:52;10.40;1.30
13754;DHT22;6948;51.216;6.778;2023-04-15T02:53:17;10.40;99.90
13754;DHT22;6948;51.216;6.778;2023-04-15T02:55:44;10.40;99.90
13754;DHT22;6948;51.216;6.778;2023-04-15T02:58:10;10.30;99.90
13754;DHT22;6948;51.216;6.778;2023-04-15T03:00:36;10.30;1.00
13754;DHT22;6948;51.216;6.778;2023-04-15T03:03:03;10.40;1.00
13754;DHT22;6948;51.216;6.778;2023-04-15T03:05:29;10.40;1.00
13754;DHT22;6948;51.216;6.778;2023-04-15T03:07:55;10.30;1.00
13754;DHT22;6948;51.216;6.778;2023-04-15T03:10:21;10.30;99.90
13754;DHT22;6948;51.216;6.778;2023-04-15T03:12:47;10.30;99.90
13754;DHT22;6948;51.216;6.778;2023-04-15T03:15:12;10.30;1.00
13754;DHT22;6948;51.216;6.778;2023-04-15T03:17:38;10.20;1.00
13754;DHT22;6948;51.216;6.778;2023-04-15T03:20:05;10.20;99.90
13754;DHT22;6948;51.216;6.778;2023-04-15T03:22:31;10.10;99.90
13754;DHT22;6948;51.216;6.778;2023-04-15T03:24:57;10.10;99.90
13754;DHT22;6948;51.216;6.778;2023-04-15T03:27:24;10.10;99.90
13754;DHT22;6948;51.216;6.778;2023-04-15T03:29:49;10.10;99.90
13754;DHT22;6948;51.216;6.778;2023-04-15T03:32:16;10.20;99.90
13754;DHT22;6948;51.216;6.778;2023-04-15T03:34:42;10.20;99.90
13754;DHT22;6948;51.216;6.778;2023-04-15T03:37:07;10.20;99.90
13754;DHT22;6948;51.216;6.778;2023-04-15T03:39:33;10.20;99.90
13754;DHT22;6948;51.216;6.778;2023-04-15T03:41:59;10.10;99.90
13754;DHT22;6948;51.216;6.778;2023-04-15T03:44:26;10.00;1.00
13754;DHT22;6948;51.216;6.778;2023-04-15T03:46:52;9.90;1.00
13754;DHT22;6948;51.216;6.778;2023-04-15T03:49:18;9.80;1.00
13754;DHT22;6948;51.216;6.778;2023-04-15T03:51:44;9.70;1.00
13754;DHT22;6948;51.216;6.778;2023-04-15T03:54:10;9.80;1.00
13754;DHT22;6948;51.216;6.778;2023-04-15T03:56:37;9.70;1.00
13754;DHT22;6948;51.216;6.778;2023-04-15T03:59:03;9.60;1.00
13754;DHT22;6948;51.216;6.778;2023-04-15T04:01:28;9.60;1.00
13754;DHT22;6948;51.216;6.778;2023-04-15T04:03:54;9.60;1.00
13754;DHT22;6948;51.216;6.778;2023-04-15T04:06:19;9.60;1.00
13754;DHT22;6948;51.216;6.778;2023-04-15T04:08:45;9.70;1.00
13754;DHT22;6948;51.216;6.778;2023-04-15T04:11:11;9.60;1.00
13754;DHT22;6948;51.216;6.778;2023-04-15T04:13:36;9.50;1.00
13754;DHT22;6948;51.216;6.778;2023-04-15T04:16:02;9.40;1.00
13754;DHT22;6948;51.216;6.778;2023-04-15T04:18:31;9.50;1.00
13754;DHT22;6948;51.216;6.778;2023-04-15T04:20:56;9.60;1.00
13754;DHT22;6948;51.216;6.778;2023-04-15T04:23:22;9.60;1.00
13754;DHT22;6948;51.216;6.778;2023-04-15T04:25:48;9.60;1.00
13754;DHT22;6948;51.216;6.778;2023-04-15T04:28:13;9.50;1.00
13754;DHT22;6948;51.216;6.778;2023-04-15T04:30:39;9.50;1.00
13754;DHT22;6948;51.216;6.778;2023-04-15T04:33:06;9.40;1.00
13754;DHT22;6948;51.216;6.778;2023-04-15T04:35:31;9.40;1.00
13754;DHT22;6948;51.216;6.778;2023-04-15T04:37:59;9.40;1.00
13754;DHT22;6948;51.216;6.778;2023-04-15T04:40:25;9.40;1.00
13754;DHT22;6948;51.216;6.778;2023-04-15T04:42:52;9.20;1.00
13754;DHT22;6948;51.216;6.778;2023-04-15T04:45:18;9.20;1.00
13754;DHT22;6948;51.216;6.778;2023-04-15T04:47:44;9.10;1.00
13754;DHT22;6948;51.216;6.778;2023-04-15T04:50:09;9.00;1.00
13754;DHT22;6948;51.216;6.778;2023-04-15T04:52:36;9.10;1.00
13754;DHT22;6948;51.216;6.778;2023-04-15T04:55:02;9.20;1.00
13754;DHT22;6948;51.216;6.778;2023-04-15T04:57:27;9.30;1.00
13754;DHT22;6948;51.216;6.778;2023-04-15T04:59:53;9.40;1.00
13754;DHT22;6948;51.216;6.778;2023-04-15T05:02:18;9.40;1.00
13754;DHT22;6948;51.216;6.778;2023-04-15T05:04:44;9.30;1.00
13754;DHT22;6948;51.216;6.778;2023-04-15T05:07:10;9.20;1.00
13754;DHT22;6948;51.216;6.778;2023-04-15T05:09:36;9.20;1.00
13754;DHT22;6948;51.216;6.778;2023-04-15T05:12:03;9.20;1.00
13754;DHT22;6948;51.216;6.778;2023-04-15T05:14:29;9.10;1.00
13754;DHT22;6948;51.216;6.778;2023-04-15T05:16:56;9.00;1.00
13754;DHT22;6948;51.216;6.778;2023-04-15T05:19:22;8.90;1.00
13754;DHT22;6948;51.216;6.778;2023-04-15T05:21:47;8.80;1.00
13754;DHT22;6948;51.216;6.778;2023-04-15T05:24:13;8.70;1.00
13754;DHT22;6948;51.216;6.778;2023-04-15T05:26:39;8.60;1.00
13754;DHT22;6948;51.216;6.778;2023-04-15T05:29:04;8.60;1.00
13754;DHT22;6948;51.216;6.778;2023-04-15T05:31:30;8.50;1.00
13754;DHT22;6948;51.216;6.778;2023-04-15T05:33:56;8.70;1.00
13754;DHT22;6948;51.216;6.778;2023-04-15T05:36:21;8.90;1.00
13754;DHT22;6948;51.216;6.778;2023-04-15T05:38:47;8.90;1.00
13754;DHT22;6948;51.216;6.778;2023-04-15T05:41:13;8.70;1.00
13754;DHT22;6948;51.216;6.778;2023-04-15T05:43:40;8.70;1.00
13754;DHT22;6948;51.216;6.778;2023-04-15T05:46:06;8.60;1.00
13754;DHT22;6948;51.216;6.778;2023-04-15T05:48:33;8.60;1.00
13754;DHT22;6948;51.216;6.778;2023-04-15T05:50:59;8.70;1.00
13754;DHT22;6948;51.216;6.778;2023-04-15T05:53:25;9.00;1.00
13754;DHT22;6948;51.216;6.778;2023-04-15T05:55:51;9.20;1.00
13754;DHT22;6948;51.216;6.778;2023-04-15T05:58:16;9.40;1.00
13754;DHT22;6948;51.216;6.778;2023-04-15T06:00:42;9.50;1.00
13754;DHT22;6948;51.216;6.778;2023-04-15T06:03:09;9.70;1.00
13754;DHT22;6948;51.216;6.778;2023-04-15T06:05:36;9.80;1.00
13754;DHT22;6948;51.216;6.778;2023-04-15T06:08:01;9.80;1.00
13754;DHT22;6948;51.216;6.778;2023-04-15T06:10:27;9.70;1.00
13754;DHT22;6948;51.216;6.778;2023-04-15T06:12:53;9.80;1.00
13754;DHT22;6948;51.216;6.778;2023-04-15T06:15:18;9.90;1.00
13754;DHT22;6948;51.216;6.778;2023-04-15T06:17:44;9.90;1.00
13754;DHT22;6948;51.216;6.778;2023-04-15T06:20:10;9.90;1.00
13754;DHT22;6948;51.216;6.778;2023-04-15T06:22:37;9.80;1.00
13754;DHT22;6948;51.216;6.778;2023-04-15T06:25:04;9.90;1.00
13754;DHT22;6948;51.216;6.778;2023-04-15T06:27:29;9.90;1.00
13754;DHT22;6948;51.216;6.778;2023-04-15T06:29:55;10.00;1.00
13754;DHT22;6948;51.216;6.778;2023-04-15T06:32:21;10.00;1.00
13754;DHT22;6948;51.216;6.778;2023-04-15T06:34:46;10.00;1.00
13754;DHT22;6948;51.216;6.778;2023-04-15T06:37:13;10.10;1.00
13754;DHT22;6948;51.216;6.778;2023-04-15T06:39:41;10.20;1.00
13754;DHT22;6948;51.216;6.778;2023-04-15T06:42:10;10.20;1.00
13754;DHT22;6948;51.216;6.778;2023-04-15T06:44:36;10.30;1.00
13754;DHT22;6948;51.216;6.778;2023-04-15T06:47:02;10.40;1.00
13754;DHT22;6948;51.216;6.778;2023-04-15T06:49:28;10.50;1.00
13754;DHT22;6948;51.216;6.778;2023-04-15T06:51:53;10.60;1.00
13754;DHT22;6948;51.216;6.778;2023-04-15T06:54:19;10.60;1.00
13754;DHT22;6948;51.216;6.778;2023-04-15T06:56:45;10.70;1.00
13754;DHT22;6948;51.216;6.778;2023-04-15T06:59:10;10.80;1.00
13754;DHT22;6948;51.216;6.778;2023-04-15T07:01:37;10.90;1.00
13754;DHT22;6948;51.216;6.778;2023-04-15T07:04:02;11.00;1.00
13754;DHT22;6948;51.216;6.778;2023-04-15T07:06:28;11.00;1.00
13754;DHT22;6948;51.216;6.778;2023-04-15T07:08:54;11.10;1.00
13754;DHT22;6948;51.216;6.778;2023-04-15T07:11:20;11.30;1.00
13754;DHT22;6948;51.216;6.778;2023-04-15T07:13:45;11.50;1.00
13754;DHT22;6948;51.216;6.778;2023-04-15T07:16:11;11.50;1.00
13754;DHT22;6948;51.216;6.778;2023-04-15T07:18:37;11.60;1.00
13754;DHT22;6948;51.216;6.778;2023-04-15T07:21:02;11.70;1.00
13754;DHT22;6948;51.216;6.778;2023-04-15T07:23:28;11.80;1.00
13754;DHT22;6948;51.216;6.778;2023-04-15T07:25:53;11.80;1.00
13754;DHT22;6948;51.216;6.778;2023-04-15T07:28:19;11.90;1.00
13754;DHT22;6948;51.216;6.778;2023-04-15T07:30:45;12.00;99.90
13754;DHT22;6948;51.216;6.778;2023-04-15T07:33:11;12.00;99.90
13754;DHT22;6948;51.216;6.778;2023-04-15T07:35:37;12.00;99.90
13754;DHT22;6948;51.216;6.778;2023-04-15T07:38:02;12.10;99.90
13754;DHT22;6948;51.216;6.778;2023-04-15T07:40:28;12.10;1.00
13754;DHT22;6948;51.216;6.778;2023-04-15T07:42:55;12.10;99.90
13754;DHT22;6948;51.216;6.778;2023-04-15T07:45:22;11.90;1.00
13754;DHT22;6948;51.216;6.778;2023-04-15T07:47:48;11.80;1.00
13754;DHT22;6948;51.216;6.778;2023-04-15T07:50:15;11.90;1.00
13754;DHT22;6948;51.216;6.778;2023-04-15T07:52:42;11.90;99.90
13754;DHT22;6948;51.216;6.778;2023-04-15T07:55:08;11.90;99.90
13754;DHT22;6948;51.216;6.778;2023-04-15T07:57:34;11.80;99.90
13754;DHT22;6948;51.216;6.778;2023-04-15T08:00:00;11.80;99.90
13754;DHT22;6948;51.216;6.778;2023-04-15T08:02:27;11.80;99.90
13754;DHT22;6948;51.216;6.778;2023-04-15T08:04:53;11.70;99.90
13754;DHT22;6948;51.216;6.778;2023-04-15T08:07:18;11.70;99.90
13754;DHT22;6948;51.216;6.778;2023-04-15T08:09:44;11.70;99.90
13754;DHT22;6948;51.216;6.778;2023-04-15T08:12:10;11.80;99.90
13754;DHT22;6948;51.216;6.778;2023-04-15T08:14:38;11.90;99.90
13754;DHT22;6948;51.216;6.778;2023-04-15T08:17:04;11.80;99.90
13754;DHT22;6948;51.216;6.778;2023-04-15T08:19:30;11.80;1.00
13754;DHT22;6948;51.216;6.778;2023-04-15T08:21:56;11.60;77.50
13754;DHT22;6948;51.216;6.778;2023-04-15T08:24:22;11.60;99.90
13754;DHT22;6948;51.216;6.778;2023-04-15T08:26:48;11.50;99.90
13754;DHT22;6948;51.216;6.778;2023-04-15T08:29:14;11.60;99.90
13754;DHT22;6948;51.216;6.778;2023-04-15T08:31:40;11.60;99.90
13754;DHT22;6948;51.216;6.778;2023-04-15T08:34:06;11.60;99.90
13754;DHT22;6948;51.216;6.778;2023-04-15T08:36:31;11.90;99.90
13754;DHT22;6948;51.216;6.778;2023-04-15T08:38:58;12.00;99.90
13754;DHT22;6948;51.216;6.778;2023-04-15T08:41:25;12.00;1.00
13754;DHT22;6948;51.216;6.778;2023-04-15T08:43:55;12.10;1.00
13754;DHT22;6948;51.216;6.778;2023-04-15T08:46:22;12.10;1.00
13754;DHT22;6948;51.216;6.778;2023-04-15T08:48:48;12.10;1.00
13754;DHT22;6948;51.216;6.778;2023-04-15T08:51:16;12.20;1.00
13754;DHT22;6948;51.216;6.778;2023-04-15T08:53:43;12.20;1.00
13754;DHT22;6948;51.216;6.778;2023-04-15T08:56:11;12.30;1.00
13754;DHT22;6948;51.216;6.778;2023-04-15T08:58:38;12.20;7.20
13754;DHT22;6948;51.216;6.778;2023-04-15T09:01:04;12.20;61.30
13754;DHT22;6948;51.216;6.778;2023-04-15T09:03:31;12.20;99.90
13754;DHT22;6948;51.216;6.778;2023-04-15T09:05:57;12.10;1.00
13754;DHT22;6948;51.216;6.778;2023-04-15T09:08:23;12.10;99.90
13754;DHT22;6948;51.216;6.778;2023-04-15T09:10:48;12.30;99.90
13754;DHT22;6948;51.216;6.778;2023-04-15T09:13:14;12.30;79.90
13754;DHT22;6948;51.216;6.778;2023-04-15T09:15:40;12.40;99.90
13754;DHT22;6948;51.216;6.778;2023-04-15T09:18:06;12.40;1.00
13754;DHT22;6948;51.216;6.778;2023-04-15T09:20:39;12.40;1.00
13754;DHT22;6948;51.216;6.778;2023-04-15T09:23:14;12.70;1.00
13754;DHT22;6948;51.216;6.778;2023-04-15T09:25:41;12.90;99.90
13754;DHT22;6948;51.216;6.778;2023-04-15T09:28:07;13.00;99.90
13754;DHT22;6948;51.216;6.778;2023-04-15T09:30:33;13.00;99.90
13754;DHT22;6948;51.216;6.778;2023-04-15T09:33:01;13.00;99.90
13754;DHT22;6948;51.216;6.778;2023-04-15T09:35:27;12.90;1.00
13754;DHT22;6948;51.216;6.778;2023-04-15T09:38:02;12.80;99.90
13754;DHT22;6948;51.216;6.778;2023-04-15T09:40:34;12.80;59.20
13754;DHT22;6948;51.216;6.778;2023-04-15T09:43:00;12.80;1.00
13754;DHT22;6948;51.216;6.778;2023-04-15T09:45:27;12.80;52.20
13754;DHT22;6948;51.216;6.778;2023-04-15T09:47:53;12.70;77.60
13754;DHT22;6948;51.216;6.778;2023-04-15T09:50:19;12.70;99.90
13754;DHT22;6948;51.216;6.778;2023-04-15T09:52:46;12.60;99.90
13754;DHT22;6948;51.216;6.778;2023-04-15T09:55:13;12.80;95.90
13754;DHT22;6948;51.216;6.778;2023-04-15T09:57:39;12.70;99.90
13754;DHT22;6948;51.216;6.778;2023-04-15T10:00:08;12.70;99.90
13754;DHT22;6948;51.216;6.778;2023-04-15T10:02:38;12.80;99.90
13754;DHT22;6948;51.216;6.778;2023-04-15T10:05:05;13.00;1.00
13754;DHT22;6948;51.216;6.778;2023-04-15T10:07:31;13.10;99.90
13754;DHT22;6948;51.216;6.778;2023-04-15T10:09:59;13.10;1.00
13754;DHT22;6948;51.216;6.778;2023-04-15T10:12:27;13.00;1.00
13754;DHT22;6948;51.216;6.778;2023-04-15T10:15:03;13.30;99.90
13754;DHT22;6948;51.216;6.778;2023-04-15T10:17:32;13.30;99.90
13754;DHT22;6948;51.216;6.778;2023-04-15T10:20:02;13.50;99.90
13754;DHT22;6948;51.216;6.778;2023-04-15T10:22:29;13.60;99.90
13754;DHT22;6948;51.216;6.778;2023-04-15T10:24:56;13.70;1.00
13754;DHT22;6948;51.216;6.778;2023-04-15T10:27:22;13.50;1.00
13754;DHT22;6948;51.216;6.778;2023-04-15T10:29:49;13.50;99.90
13754;DHT22;6948;51.216;6.778;2023-04-15T10:32:17;13.60;99.90
13754;DHT22;6948;51.216;6.778;2023-04-15T10:34:45;13.60;1.00
13754;DHT22;6948;51.216;6.778;2023-04-15T10:37:10;13.60;1.00
13754;DHT22;6948;51.216;6.778;2023-04-15T10:42:17;13.50;1.00
13754;DHT22;6948;51.216;6.778;2023-04-15T10:44:49;13.50;99.90
13754;DHT22;6948;51.216;6.778;2023-04-15T10:47:18;13.30;99.90
13754;DHT22;6948;51.216;6.778;2023-04-15T10:52:24;13.10;1.00
13754;DHT22;6948;51.216;6.778;2023-04-15T10:58:02;13.00;1.00
13754;DHT22;6948;51.216;6.778;2023-04-15T11:00:30;13.00;1.00
13754;DHT22;6948;51.216;6.778;2023-04-15T11:02:58;12.90;45.30
13754;DHT22;6948;51.216;6.778;2023-04-15T11:05:51;12.80;99.90
13754;DHT22;6948;51.216;6.778;2023-04-15T11:08:17;12.90;99.90
13754;DHT22;6948;51.216;6.778;2023-04-15T11:13:20;12.90;99.90
13754;DHT22;6948;51.216;6.778;2023-04-15T11:15:48;13.10;99.90
13754;DHT22;6948;51.216;6.778;2023-04-15T11:18:24;13.10;99.90
13754;DHT22;6948;51.216;6.778;2023-04-15T11:20:52;13.00;99.90
13754;DHT22;6948;51.216;6.778;2023-04-15T11:26:06;12.90;1.00
13754;DHT22;6948;51.216;6.778;2023-04-15T11:28:34;13.10;99.90
13754;DHT22;6948;51.216;6.778;2023-04-15T11:31:10;13.00;99.90
13754;DHT22;6948;51.216;6.778;2023-04-15T11:33:37;12.90;99.90
13754;DHT22;6948;51.216;6.778;2023-04-15T11:36:03;12.80;1.00
13754;DHT22;6948;51.216;6.778;2023-04-15T11:38:29;12.80;1.00
13754;DHT22;6948;51.216;6.778;2023-04-15T11:40:56;12.80;1.00
13754;DHT22;6948;51.216;6.778;2023-04-15T11:43:22;13.00;1.00
13754;DHT22;6948;51.216;6.778;2023-04-15T11:45:57;12.90;1.00
13754;DHT22;6948;51.216;6.778;2023-04-15T11:48:25;12.90;1.00
13754;DHT22;6948;51.216;6.778;2023-04-15T11:50:57;13.00;1.00
13754;DHT22;6948;51.216;6.778;2023-04-15T11:53:24;12.90;99.90
13754;DHT22;6948;51.216;6.778;2023-04-15T11:56:00;12.80;99.90
13754;DHT22;6948;51.216;6.778;2023-04-15T11:58:26;12.90;99.90
13754;DHT22;6948;51.216;6.778;2023-04-15T12:00:54;12.90;1.00
13754;DHT22;6948;51.216;6.778;2023-04-15T12:03:29;12.90;1.00
13754;DHT22;6948;51.216;6.778;2023-04-15T12:06:16;12.80;99.90
13754;DHT22;6948;51.216;6.778;2023-04-15T12:09:06;12.70;1.00
13754;DHT22;6948;51.216;6.778;2023-04-15T12:16:50;12.60;1.00
13754;DHT22;6948;51.216;6.778;2023-04-15T12:19:25;12.60;1.00
13754;DHT22;6948;51.216;6.778;2023-04-15T12:21:56;12.50;1.00
13754;DHT22;6948;51.216;6.778;2023-04-15T12:24:23;12.30;1.00
13754;DHT22;6948;51.216;6.778;2023-04-15T12:29:27;12.30;1.00
13754;DHT22;6948;51.216;6.778;2023-04-15T12:32:11;12.30;1.00
13754;DHT22;6948;51.216;6.778;2023-04-15T12:34:40;12.40;1.00
13754;DHT22;6948;51.216;6.778;2023-04-15T12:37:08;12.30;1.00
13754;DHT22;6948;51.216;6.778;2023-04-15T12:39:37;12.20;1.00
13754;DHT22;6948;51.216;6.778;2023-04-15T12:42:03;12.30;1.00
13754;DHT22;6948;51.216;6.778;2023-04-15T12:44:29;12.30;1.00
13754;DHT22;6948;51.216;6.778;2023-04-15T12:46:56;12.50;1.00
13754;DHT22;6948;51.216;6.778;2023-04-15T12:49:22;12.50;1.00
13754;DHT22;6948;51.216;6.778;2023-04-15T12:51:50;12.60;1.00
13754;DHT22;6948;51.216;6.778;2023-04-15T12:54:16;12.60;1.00
13754;DHT22;6948;51.216;6.778;2023-04-15T12:56:43;12.40;1.00
13754;DHT22;6948;51.216;6.778;2023-04-15T12:59:10;12.20;1.00
13754;DHT22;6948;51.216;6.778;2023-04-15T13:01:37;12.00;1.00
13754;DHT22;6948;51.216;6.778;2023-04-15T13:04:03;12.10;1.00
13754;DHT22;6948;51.216;6.778;2023-04-15T13:06:29;12.10;1.00
13754;DHT22;6948;51.216;6.778;2023-04-15T13:08:58;12.10;1.00
13754;DHT22;6948;51.216;6.778;2023-04-15T13:11:24;12.00;1.00
13754;DHT22;6948;51.216;6.778;2023-04-15T13:13:50;12.00;1.00
13754;DHT22;6948;51.216;6.778;2023-04-15T13:16:17;12.00;1.00
13754;DHT22;6948;51.216;6.778;2023-04-15T13:18:43;12.00;1.00
13754;DHT22;6948;51.216;6.778;2023-04-15T13:21:11;12.00;1.00
13754;DHT22;6948;51.216;6.778;2023-04-15T13:23:37;11.90;1.00
13754;DHT22;6948;51.216;6.778;2023-04-15T13:26:03;12.00;1.00
13754;DHT22;6948;51.216;6.778;2023-04-15T13:28:29;11.90;1.00
13754;DHT22;6948;51.216;6.778;2023-04-15T13:30:54;11.90;1.00
13754;DHT22;6948;51.216;6.778;2023-04-15T13:33:20;11.90;1.00
13754;DHT22;6948;51.216;6.778;2023-04-15T13:35:46;12.00;1.00
13754;DHT22;6948;51.216;6.778;2023-04-15T13:38:11;11.90;1.00
13754;DHT22;6948;51.216;6.778;2023-04-15T13:40:37;11.90;1.00
13754;DHT22;6948;51.216;6.778;2023-04-15T13:43:03;12.00;1.00
13754;DHT22;6948;51.216;6.778;2023-04-15T13:45:29;12.00;1.00
13754;DHT22;6948;51.216;6.778;2023-04-15T13:47:55;12.00;1.00
13754;DHT22;6948;51.216;6.778;2023-04-15T13:50:22;12.00;1.00
13754;DHT22;6948;51.216;6.778;2023-04-15T13:52:47;12.00;1.00
13754;DHT22;6948;51.216;6.778;2023-04-15T13:55:13;12.00;1.00
13754;DHT22;6948;51.216;6.778;2023-04-15T13:57:39;12.00;1.00
13754;DHT22;6948;51.216;6.778;2023-04-15T14:00:05;12.00;1.00
13754;DHT22;6948;51.216;6.778;2023-04-15T14:02:31;11.80;1.00
13754;DHT22;6948;51.216;6.778;2023-04-15T14:04:57;11.80;1.00
13754;DHT22;6948;51.216;6.778;2023-04-15T14:07:22;12.00;1.00
13754;DHT22;6948;51.216;6.778;2023-04-15T14:09:48;12.20;1.00
13754;DHT22;6948;51.216;6.778;2023-04-15T14:12:14;12.30;1.00
13754;DHT22;6948;51.216;6.778;2023-04-15T14:14:39;12.40;1.00
13754;DHT22;6948;51.216;6.778;2023-04-15T14:17:05;12.30;1.00
13754;DHT22;6948;51.216;6.778;2023-04-15T14:19:32;12.30;1.00
13754;DHT22;6948;51.216;6.778;2023-04-15T14:21:58;12.20;1.00
13754;DHT22;6948;51.216;6.778;2023-04-15T14:24:24;12.00;1.00
13754;DHT22;6948;51.216;6.778;2023-04-15T14:26:49;12.00;1.00
13754;DHT22;6948;51.216;6.778;2023-04-15T14:29:15;12.20;1.00
13754;DHT22;6948;51.216;6.778;2023-04-15T14:31:41;12.10;1.00
13754;DHT22;6948;51.216;6.778;2023-04-15T14:34:09;12.00;1.00
13754;DHT22;6948;51.216;6.778;2023-04-15T14:36:35;12.00;1.00
13754;DHT22;6948;51.216;6.778;2023-04-15T14:39:01;12.10;1.00
13754;DHT22;6948;51.216;6.778;2023-04-15T14:41:28;12.20;1.00
13754;DHT22;6948;51.216;6.778;2023-04-15T14:43:54;12.20;1.00
13754;DHT22;6948;51.216;6.778;2023-04-15T14:46:21;12.10;1.00
13754;DHT22;6948;51.216;6.778;2023-04-15T14:48:47;12.00;1.00
13754;DHT22;6948;51.216;6.778;2023-04-15T14:51:12;12.00;1.00
13754;DHT22;6948;51.216;6.778;2023-04-15T14:53:38;11.90;1.00
13754;DHT22;6948;51.216;6.778;2023-04-15T14:56:04;11.80;1.00
13754;DHT22;6948;51.216;6.778;2023-04-15T14:58:30;11.80;1.00
13754;DHT22;6948;51.216;6.778;2023-04-15T15:00:57;11.80;1.00
13754;DHT22;6948;51.216;6.778;2023-04-15T15:03:22;11.80;1.00
13754;DHT22;6948;51.216;6.778;2023-04-15T15:05:48;11.80;1.00
13754;DHT22;6948;51.216;6.778;2023-04-15T15:08:14;11.80;1.00
13754;DHT22;6948;51.216;6.778;2023-04-15T15:10:40;11.80;1.00
13754;DHT22;6948;51.216;6.778;2023-04-15T15:13:07;11.90;1.00
13754;DHT22;6948;51.216;6.778;2023-04-15T15:15:34;11.80;1.00
13754;DHT22;6948;51.216;6.778;2023-04-15T15:18:00;11.60;1.00
13754;DHT22;6948;51.216;6.778;2023-04-15T15:20:26;11.70;1.00
13754;DHT22;6948;51.216;6.778;2023-04-15T15:22:52;11.70;1.00
13754;DHT22;6948;51.216;6.778;2023-04-15T15:25:18;11.60;1.00
13754;DHT22;6948;51.216;6.778;2023-04-15T15:27:44;11.70;1.00
13754;DHT22;6948;51.216;6.778;2023-04-15T15:30:10;11.70;1.00
13754;DHT22;6948;51.216;6.778;2023-04-15T15:32:38;11.50;1.00
13754;DHT22;6948;51.216;6.778;2023-04-15T15:35:04;11.50;1.00
13754;DHT22;6948;51.216;6.778;2023-04-15T15:37:30;11.50;1.00
13754;DHT22;6948;51.216;6.778;2023-04-15T15:39:56;11.50;1.00
13754;DHT22;6948;51.216;6.778;2023-04-15T15:42:22;11.30;1.00
13754;DHT22;6948;51.216;6.778;2023-04-15T15:44:48;11.30;1.00
13754;DHT22;6948;51.216;6.778;2023-04-15T15:47:15;11.50;1.00
13754;DHT22;6948;51.216;6.778;2023-04-15T15:49:41;11.50;1.00
13754;DHT22;6948;51.216;6.778;2023-04-15T15:52:06;11.60;1.00
13754;DHT22;6948;51.216;6.778;2023-04-15T15:54:33;11.60;1.00
13754;DHT22;6948;51.216;6.778;2023-04-15T15:56:59;11.60;1.00
13754;DHT22;6948;51.216;6.778;2023-04-15T15:59:24;11.60;1.00
13754;DHT22;6948;51.216;6.778;2023-04-15T16:01:50;11.60;1.00
13754;DHT22;6948;51.216;6.778;2023-04-15T16:04:16;11.40;1.00
13754;DHT22;6948;51.216;6.778;2023-04-15T16:06:41;11.40;1.00
13754;DHT22;6948;51.216;6.778;2023-04-15T16:09:09;11.30;1.00
13754;DHT22;6948;51.216;6.778;2023-04-15T16:11:35;11.40;35.10
13754;DHT22;6948;51.216;6.778;2023-04-15T16:14:01;11.60;28.10
13754;DHT22;6948;51.216;6.778;2023-04-15T16:16:26;11.60;1.00